createdAt,value
2023-04-02T00:01:23.005Z,8.30
2023-04-02T00:03:54.055Z,8.29
2023-04-02T00:06:32.469Z,8.28
2023-04-02T00:09:15.990Z,8.27
2023-04-02T00:11:49.581Z,8.25
2023-04-02T00:14:36.504Z,8.24
2023-04-02T00:17:05.725Z,8.23
2023-04-02T00:19:44.676Z,8.21
2023-04-02T00:22:19.515Z,8.21
2023-04-02T00:24:50.097Z,8.21
2023-04-02T00:27:17.474Z,8.20
2023-04-02T00:29:54.406Z,8.17
2023-04-02T00:32:30.904Z,8.16
2023-04-02T00:34:59.163Z,8.16
2023-04-02T00:37:38.560Z,8.16
2023-04-02T00:40:19.558Z,8.15
2023-04-02T00:42:48.019Z,8.15
2023-04-02T00:45:37.840Z,8.12
2023-04-02T00:48:52.860Z,8.11
2023-04-02T00:51:41.680Z,8.09
2023-04-02T00:54:15.838Z,8.10
2023-04-02T00:56:48.004Z,8.08
2023-04-02T00:59:26.755Z,8.09
2023-04-02T01:02:22.546Z,8.09
2023-04-02T01:05:02.832Z,8.08
2023-04-02T01:07:51.172Z,8.09
2023-04-02T01:10:31.613Z,8.08
2023-04-02T01:13:13.843Z,8.08
2023-04-02T01:15:51.437Z,8.08
2023-04-02T01:19:08.624Z,8.07
2023-04-02T01:22:11.930Z,8.06
2023-04-02T01:24:39.028Z,8.06
2023-04-02T01:27:18.594Z,8.06
2023-04-02T01:29:56.549Z,8.06
2023-04-02T01:32:27.062Z,8.06
2023-04-02T01:34:55.832Z,8.05
2023-04-02T01:37:51.838Z,8.04
2023-04-02T01:40:41.813Z,8.05
2023-04-02T01:43:29.978Z,8.05
2023-04-02T01:46:06.536Z,8.05
2023-04-02T01:48:33.799Z,8.04
2023-04-02T01:51:03.955Z,8.05
2023-04-02T01:53:31.497Z,8.05
2023-04-02T01:56:02.582Z,8.05
2023-04-02T01:58:32.658Z,8.05
2023-04-02T02:01:07.100Z,8.06
2023-04-02T02:03:35.456Z,8.07
2023-04-02T02:06:06.524Z,8.07
2023-04-02T02:08:45.922Z,8.08
2023-04-02T02:11:22.876Z,8.08
2023-04-02T02:14:00.728Z,8.08
2023-04-02T02:16:31.744Z,8.07
2023-04-02T02:19:03.079Z,8.07
2023-04-02T02:21:39.850Z,8.07
2023-04-02T02:24:31.571Z,8.07
2023-04-02T02:27:24.260Z,8.03
2023-04-02T02:30:11.324Z,8.03
2023-04-02T02:33:07.059Z,8.02
2023-04-02T02:35:50.811Z,8.01
2023-04-02T02:38:41.232Z,8.01
2023-04-02T02:41:37.472Z,8.00
2023-04-02T02:44:10.656Z,7.98
2023-04-02T02:46:46.697Z,7.98
2023-04-02T02:49:20.040Z,7.99
2023-04-02T02:52:03.461Z,7.97
2023-04-02T02:55:13.172Z,7.97
2023-04-02T02:57:59.859Z,7.98
2023-04-02T03:00:31.902Z,7.96
2023-04-02T03:03:00.735Z,7.95
2023-04-02T03:05:31.199Z,7.96
2023-04-02T03:08:10.474Z,7.95
2023-04-02T03:10:56.387Z,7.95
2023-04-02T03:13:29.233Z,7.94
2023-04-02T03:16:33.312Z,7.93
2023-04-02T03:19:30.096Z,7.91
2023-04-02T03:22:08.556Z,7.91
2023-04-02T03:25:16.221Z,7.90
2023-04-02T03:27:49.363Z,7.89
2023-04-02T03:30:43.921Z,7.89
2023-04-02T03:33:23.897Z,7.88
2023-04-02T03:36:30.318Z,7.88
2023-04-02T03:39:15.232Z,7.87
2023-04-02T03:42:08.487Z,7.87
2023-04-02T03:44:52.503Z,7.86
2023-04-02T03:48:19.113Z,7.86
2023-04-02T03:51:03.935Z,7.87
2023-04-02T03:53:32.452Z,7.87
2023-04-02T03:56:01.526Z,7.87
2023-04-02T03:58:47.656Z,7.86
2023-04-02T04:01:31.642Z,7.86
2023-04-02T04:04:10.384Z,7.85
2023-04-02T04:06:41.900Z,7.85
2023-04-02T04:09:29.654Z,7.85
2023-04-02T04:12:36.202Z,7.86
2023-04-02T04:15:22.199Z,7.85
2023-04-02T04:18:40.839Z,7.84
2023-04-02T04:21:30.810Z,7.84
2023-04-02T04:24:20.235Z,7.84
2023-04-02T04:27:17.087Z,7.84
2023-04-02T04:30:30.171Z,7.85
2023-04-02T04:33:23.059Z,7.84
2023-04-02T04:35:59.168Z,7.83
2023-04-02T04:38:35.312Z,7.83
2023-04-02T04:41:24.264Z,7.83
2023-04-02T04:44:17.230Z,7.83
2023-04-02T04:47:03.354Z,7.83
2023-04-02T04:49:41.638Z,7.83
2023-04-02T04:52:33.924Z,7.83
2023-04-02T04:55:03.521Z,7.83
2023-04-02T04:57:38.753Z,7.83
2023-04-02T05:00:30.624Z,7.85
2023-04-02T05:03:09.139Z,7.84
2023-04-02T05:05:40.636Z,7.85
2023-04-02T05:08:39.417Z,7.85
2023-04-02T05:11:41.212Z,7.85
2023-04-02T05:14:43.303Z,7.84
2023-04-02T05:18:11.005Z,7.84
2023-04-02T05:21:19.488Z,7.85
2023-04-02T05:24:24.905Z,7.84
2023-04-02T05:27:00.247Z,7.85
2023-04-02T05:29:36.119Z,7.85
2023-04-02T05:32:25.845Z,7.85
2023-04-02T05:34:56.004Z,7.86
2023-04-02T05:37:28.060Z,7.88
2023-04-02T05:40:11.000Z,7.90
2023-04-02T05:42:39.948Z,7.90
2023-04-02T05:45:13.515Z,7.89
2023-04-02T05:47:44.431Z,7.89
2023-04-02T05:50:30.563Z,7.90
2023-04-02T05:53:14.458Z,7.91
2023-04-02T05:56:11.218Z,7.92
2023-04-02T05:58:49.291Z,7.93
2023-04-02T06:01:47.209Z,7.93
2023-04-02T06:04:57.649Z,7.95
2023-04-02T06:07:41.612Z,7.97
2023-04-02T06:10:25.735Z,7.95
2023-04-02T06:13:08.627Z,7.96
2023-04-02T06:15:39.970Z,7.98
2023-04-02T06:18:24.864Z,7.98
2023-04-02T06:20:53.559Z,8.00
2023-04-02T06:23:38.044Z,8.01
2023-04-02T06:26:31.611Z,8.02
2023-04-02T06:29:37.964Z,8.04
2023-04-02T06:32:08.882Z,8.05
2023-04-02T06:34:42.313Z,8.06
2023-04-02T06:37:36.206Z,8.08
2023-04-02T06:40:50.331Z,8.08
2023-04-02T06:44:01.028Z,8.11
2023-04-02T06:46:52.423Z,8.12
2023-04-02T06:49:51.024Z,8.15
2023-04-02T06:52:45.907Z,8.15
2023-04-02T06:55:48.857Z,8.17
2023-04-02T06:58:21.221Z,8.19
2023-04-02T07:00:50.951Z,8.19
2023-04-02T07:03:32.138Z,8.20
2023-04-02T07:06:05.272Z,8.22
2023-04-02T07:08:33.932Z,8.24
2023-04-02T07:11:01.278Z,8.24
2023-04-02T07:13:29.143Z,8.27
2023-04-02T07:15:56.840Z,8.27
2023-04-02T07:18:32.202Z,8.27
2023-04-02T07:21:01.852Z,8.28
2023-04-02T07:23:29.130Z,8.30
2023-04-02T07:25:57.400Z,8.31
2023-04-02T07:28:24.533Z,8.33
2023-04-02T07:30:52.297Z,8.33
2023-04-02T07:33:25.909Z,8.35
2023-04-02T07:35:55.654Z,8.36
2023-04-02T07:38:23.054Z,8.39
2023-04-02T07:40:50.359Z,8.42
2023-04-02T07:43:17.315Z,8.45
2023-04-02T07:45:44.372Z,8.49
2023-04-02T07:48:14.190Z,8.51
2023-04-02T07:50:41.744Z,8.55
2023-04-02T07:53:37.771Z,8.57
2023-04-02T07:56:05.944Z,8.59
2023-04-02T07:58:33.692Z,8.61
2023-04-02T08:01:01.675Z,8.63
2023-04-02T08:03:29.492Z,8.65
2023-04-02T08:05:58.749Z,8.67
2023-04-02T08:08:26.218Z,8.68
2023-04-02T08:10:53.280Z,8.70
2023-04-02T08:13:20.362Z,8.72
2023-04-02T08:15:48.270Z,8.72
2023-04-02T08:18:15.221Z,8.72
2023-04-02T08:20:42.196Z,8.73
2023-04-02T08:23:17.066Z,8.76
2023-04-02T08:25:47.076Z,8.76
2023-04-02T08:28:14.350Z,8.79
2023-04-02T08:30:41.757Z,8.80
2023-04-02T08:33:08.849Z,8.81
2023-04-02T08:35:36.332Z,8.84
2023-04-02T08:38:03.695Z,8.85
2023-04-02T08:40:41.635Z,8.88
2023-04-02T08:43:38.715Z,8.89
2023-04-02T08:46:19.019Z,8.93
2023-04-02T08:48:55.339Z,8.94
2023-04-02T08:51:30.743Z,8.97
2023-04-02T08:54:49.234Z,8.99
2023-04-02T08:57:44.395Z,9.01
2023-04-02T09:00:44.027Z,9.07
2023-04-02T09:03:40.287Z,9.13
2023-04-02T09:06:14.715Z,9.17
2023-04-02T09:08:46.677Z,9.20
2023-04-02T09:11:47.757Z,9.25
2023-04-02T09:14:21.456Z,9.28
2023-04-02T09:17:01.845Z,9.31
2023-04-02T09:19:40.878Z,9.36
2023-04-02T09:22:31.671Z,9.41
2023-04-02T09:25:02.458Z,9.46
2023-04-02T09:27:35.420Z,9.51
2023-04-02T09:30:30.343Z,9.56
2023-04-02T09:33:09.043Z,9.61
2023-04-02T09:35:57.319Z,9.68
2023-04-02T09:38:30.762Z,9.72
2023-04-02T09:41:04.635Z,9.78
2023-04-02T09:43:39.223Z,9.82
2023-04-02T09:46:24.465Z,9.88
2023-04-02T09:49:01.976Z,9.92
2023-04-02T09:51:34.705Z,9.95
2023-04-02T09:54:04.590Z,9.99
2023-04-02T09:56:35.806Z,10.04
2023-04-02T09:59:21.871Z,10.08
2023-04-02T10:01:54.879Z,10.14
2023-04-02T10:04:47.794Z,10.20
2023-04-02T10:07:36.938Z,10.26
2023-04-02T10:10:18.697Z,10.31
2023-04-02T10:13:18.657Z,10.39
2023-04-02T10:16:12.762Z,10.45
2023-04-02T10:18:58.778Z,10.55
2023-04-02T10:21:37.239Z,10.64
2023-04-02T10:24:15.672Z,10.74
2023-04-02T10:27:09.448Z,10.84
2023-04-02T10:30:05.267Z,10.95
2023-04-02T10:33:16.606Z,11.08
2023-04-02T10:36:30.271Z,11.19
2023-04-02T10:39:15.837Z,11.25
2023-04-02T10:41:58.166Z,11.31
2023-04-02T10:44:45.315Z,11.39
2023-04-02T10:47:27.359Z,11.48
2023-04-02T10:50:33.976Z,11.57
2023-04-02T10:53:21.174Z,11.63
2023-04-02T10:56:08.707Z,11.68
2023-04-02T10:58:57.548Z,11.71
2023-04-02T11:01:30.454Z,11.74
2023-04-02T11:04:01.833Z,11.76
2023-04-02T11:06:56.080Z,11.82
2023-04-02T11:09:37.653Z,11.83
2023-04-02T11:12:07.141Z,11.86
2023-04-02T11:14:34.248Z,11.89
2023-04-02T11:17:03.311Z,11.91
2023-04-02T11:19:35.996Z,11.93
2023-04-02T11:22:15.267Z,11.95
2023-04-02T11:24:53.424Z,11.94
2023-04-02T11:27:29.553Z,11.93
2023-04-02T11:30:06.737Z,11.92
2023-04-02T11:32:36.629Z,11.87
2023-04-02T11:35:31.225Z,11.85
2023-04-02T11:38:23.541Z,11.80
2023-04-02T11:40:58.762Z,11.76
2023-04-02T11:43:35.441Z,11.72
2023-04-02T11:46:41.977Z,11.71
2023-04-02T11:49:40.696Z,11.70
2023-04-02T11:52:46.335Z,11.71
2023-04-02T11:55:35.146Z,11.70
2023-04-02T11:58:07.672Z,11.70
2023-04-02T12:01:25.743Z,11.60
2023-04-02T12:04:26.473Z,11.43
2023-04-02T12:07:34.896Z,11.21
2023-04-02T12:10:24.857Z,11.00
2023-04-02T12:12:51.965Z,10.85
2023-04-02T12:15:46.955Z,10.72
2023-04-02T12:18:22.137Z,10.57
2023-04-02T12:20:56.241Z,10.47
2023-04-02T12:23:33.945Z,10.32
2023-04-02T12:26:06.441Z,10.22
2023-04-02T12:28:34.480Z,10.09
2023-04-02T12:31:17.504Z,9.99
2023-04-02T12:33:45.736Z,9.90
2023-04-02T12:36:14.370Z,9.86
2023-04-02T12:38:51.986Z,9.79
2023-04-02T12:41:30.285Z,9.77
2023-04-02T12:44:06.282Z,9.71
2023-04-02T12:46:35.462Z,9.64
2023-04-02T12:49:07.608Z,9.62
2023-04-02T12:51:36.981Z,9.59
2023-04-02T12:54:04.462Z,9.57
2023-04-02T12:56:31.610Z,9.55
2023-04-02T12:59:01.260Z,9.57
2023-04-02T13:01:31.669Z,9.58
2023-04-02T13:04:12.530Z,9.58
2023-04-02T13:06:47.424Z,9.59
2023-04-02T13:09:31.361Z,9.58
2023-04-02T13:11:59.115Z,9.59
2023-04-02T13:14:26.935Z,9.57
2023-04-02T13:16:54.830Z,9.57
2023-04-02T13:19:31.140Z,9.52
2023-04-02T13:22:01.950Z,9.49
2023-04-02T13:24:33.442Z,9.44
2023-04-02T13:27:03.813Z,9.40
2023-04-02T13:29:36.152Z,9.35
2023-04-02T13:32:07.720Z,9.32
2023-04-02T13:34:34.665Z,9.30
2023-04-02T13:37:01.670Z,9.29
2023-04-02T13:39:30.208Z,9.32
2023-04-02T13:42:04.444Z,9.30
2023-04-02T13:44:35.827Z,9.30
2023-04-02T13:47:03.085Z,9.28
2023-04-02T13:49:31.068Z,9.27
2023-04-02T13:52:04.185Z,9.24
2023-04-02T13:54:49.419Z,9.23
2023-04-02T13:57:17.344Z,9.22
2023-04-02T13:59:44.422Z,9.22
2023-04-02T14:02:18.805Z,9.21
2023-04-02T14:04:51.029Z,9.21
2023-04-02T14:07:55.459Z,9.20
2023-04-02T14:10:57.590Z,9.21
2023-04-02T14:13:45.363Z,9.23
2023-04-02T14:16:27.940Z,9.24
2023-04-02T14:19:12.514Z,9.24
2023-04-02T14:22:11.202Z,9.22
2023-04-02T14:25:02.239Z,9.25
2023-04-02T14:27:48.172Z,9.22
2023-04-02T14:30:53.567Z,9.21
2023-04-02T14:34:12.713Z,9.21
2023-04-02T14:36:56.453Z,9.19
2023-04-02T14:39:46.314Z,9.19
2023-04-02T14:42:40.398Z,9.21
2023-04-02T14:45:26.353Z,9.22
2023-04-02T14:48:25.646Z,9.21
2023-04-02T14:51:14.504Z,9.20
2023-04-02T14:53:56.352Z,9.20
2023-04-02T14:56:25.580Z,9.20
2023-04-02T14:59:34.291Z,9.17
2023-04-02T15:02:30.381Z,9.13
2023-04-02T15:05:04.218Z,9.14
2023-04-02T15:07:41.642Z,9.14
2023-04-02T15:10:30.859Z,9.16
2023-04-02T15:12:59.809Z,9.14
2023-04-02T15:15:58.675Z,9.14
2023-04-02T15:18:25.682Z,9.10
2023-04-02T15:21:29.155Z,9.07
2023-04-02T15:24:26.736Z,9.04
2023-04-02T15:27:07.152Z,8.98
2023-04-02T15:30:07.349Z,8.93
2023-04-02T15:32:34.266Z,8.87
2023-04-02T15:35:28.705Z,8.85
2023-04-02T15:38:09.108Z,8.82
2023-04-02T15:41:23.703Z,8.80
2023-04-02T15:44:30.238Z,8.75
2023-04-02T15:47:22.526Z,8.73
2023-04-02T15:50:36.168Z,8.70
2023-04-02T15:53:26.655Z,8.69
2023-04-02T15:56:17.847Z,8.66
2023-04-02T15:59:00.539Z,8.63
2023-04-02T16:01:49.126Z,8.61
2023-04-02T16:04:51.732Z,8.60
2023-04-02T16:07:30.169Z,8.61
2023-04-02T16:10:42.378Z,8.59
2023-04-02T16:13:36.937Z,8.58
2023-04-02T16:16:30.985Z,8.55
2023-04-02T16:19:34.492Z,8.54
2023-04-02T16:22:49.725Z,8.52
2023-04-02T16:25:25.291Z,8.50
2023-04-02T16:28:26.387Z,8.48
2023-04-02T16:31:02.222Z,8.44
2023-04-02T16:34:15.792Z,8.41
2023-04-02T16:37:04.529Z,8.36
2023-04-02T16:39:43.790Z,8.32
2023-04-02T16:42:53.984Z,8.28
2023-04-02T16:45:47.669Z,8.25
2023-04-02T16:48:27.737Z,8.22
2023-04-02T16:51:24.832Z,8.17
2023-04-02T16:54:32.522Z,8.13
2023-04-02T16:57:33.854Z,8.10
2023-04-02T17:00:30.575Z,8.06
2023-04-02T17:03:12.551Z,8.04
2023-04-02T17:05:55.750Z,8.02
2023-04-02T17:08:30.866Z,8.01
2023-04-02T17:11:08.815Z,7.98
2023-04-02T17:13:51.374Z,7.96
2023-04-02T17:16:32.368Z,7.91
2023-04-02T17:19:00.216Z,7.87
2023-04-02T17:21:30.961Z,7.85
2023-04-02T17:24:23.090Z,7.80
2023-04-02T17:27:05.078Z,7.76
2023-04-02T17:29:40.567Z,7.72
2023-04-02T17:32:26.018Z,7.69
2023-04-02T17:34:53.220Z,7.64
2023-04-02T17:37:34.828Z,7.62
2023-04-02T17:40:48.103Z,7.57
2023-04-02T17:43:36.498Z,7.51
2023-04-02T17:46:34.936Z,7.47
2023-04-02T17:49:23.047Z,7.42
2023-04-02T17:52:22.070Z,7.40
2023-04-02T17:55:22.098Z,7.35
2023-04-02T17:58:32.113Z,7.30
2023-04-02T18:01:30.358Z,7.26
2023-04-02T18:04:17.196Z,7.24
2023-04-02T18:07:03.505Z,7.19
2023-04-02T18:10:11.777Z,7.17
2023-04-02T18:13:12.428Z,7.13
2023-04-02T18:16:00.735Z,7.09
2023-04-02T18:18:58.324Z,7.07
2023-04-02T18:21:33.001Z,7.04
2023-04-02T18:24:21.199Z,7.01
2023-04-02T18:27:16.185Z,6.98
2023-04-02T18:30:26.669Z,6.92
2023-04-02T18:33:31.658Z,6.88
2023-04-02T18:36:22.720Z,6.84
2023-04-02T18:39:21.928Z,6.78
2023-04-02T18:42:51.066Z,6.71
2023-04-02T18:46:17.634Z,6.65
2023-04-02T18:49:19.503Z,6.60
2023-04-02T18:51:52.359Z,6.52
2023-04-02T18:54:41.193Z,6.42
2023-04-02T18:57:19.825Z,6.35
2023-04-02T19:00:17.445Z,6.24
2023-04-02T19:03:11.470Z,6.15
2023-04-02T19:06:08.922Z,6.08
2023-04-02T19:08:57.221Z,6.01
2023-04-02T19:11:29.722Z,5.95
2023-04-02T19:14:16.479Z,5.88
2023-04-02T19:17:08.624Z,5.83
2023-04-02T19:20:18.768Z,5.78
2023-04-02T19:23:22.289Z,5.73
2023-04-02T19:26:04.964Z,5.69
2023-04-02T19:29:16.247Z,5.65
2023-04-02T19:32:13.189Z,5.61
2023-04-02T19:34:56.487Z,5.57
2023-04-02T19:37:57.333Z,5.51
2023-04-02T19:41:11.581Z,5.44
2023-04-02T19:43:39.158Z,5.39
2023-04-02T19:46:06.344Z,5.37
2023-04-02T19:49:12.476Z,5.33
2023-04-02T19:51:39.542Z,5.30
2023-04-02T19:54:06.590Z,5.26
2023-04-02T19:56:33.869Z,5.24
2023-04-02T19:59:07.818Z,5.23
2023-04-02T20:01:44.413Z,5.22
2023-04-02T20:04:11.646Z,5.19
2023-04-02T20:06:38.759Z,5.18
2023-04-02T20:09:07.469Z,5.16
2023-04-02T20:11:37.110Z,5.15
2023-04-02T20:14:05.194Z,5.10
2023-04-02T20:16:32.920Z,5.07
2023-04-02T20:19:00.073Z,5.03
2023-04-02T20:21:27.524Z,5.01
2023-04-02T20:23:55.602Z,4.99
2023-04-02T20:26:23.229Z,4.97
2023-04-02T20:28:50.242Z,4.97
2023-04-02T20:31:18.889Z,4.95
2023-04-02T20:33:46.564Z,4.95
2023-04-02T20:36:17.774Z,4.92
2023-04-02T20:38:45.550Z,4.88
2023-04-02T20:41:15.582Z,4.87
2023-04-02T20:43:42.708Z,4.85
2023-04-02T20:46:12.557Z,4.82
2023-04-02T20:48:40.216Z,4.79
2023-04-02T20:51:09.378Z,4.76
2023-04-02T20:53:38.181Z,4.74
2023-04-02T20:56:11.912Z,4.70
2023-04-02T20:58:40.570Z,4.69
2023-04-02T21:01:19.879Z,4.67
2023-04-02T21:03:48.234Z,4.65
2023-04-02T21:06:19.109Z,4.63
2023-04-02T21:08:46.804Z,4.59
2023-04-02T21:11:14.315Z,4.54
2023-04-02T21:13:43.919Z,4.52
2023-04-02T21:16:14.216Z,4.49
2023-04-02T21:18:41.247Z,4.46
2023-04-02T21:21:08.489Z,4.45
2023-04-02T21:23:35.716Z,4.41
2023-04-02T21:26:06.216Z,4.36
2023-04-02T21:28:34.712Z,4.32
2023-04-02T21:31:10.584Z,4.29
2023-04-02T21:33:41.789Z,4.27
2023-04-02T21:36:11.343Z,4.24
2023-04-02T21:38:47.260Z,4.21
2023-04-02T21:41:24.307Z,4.20
2023-04-02T21:43:52.002Z,4.18
2023-04-02T21:46:23.104Z,4.16
2023-04-02T21:48:50.980Z,4.14
2023-04-02T21:51:25.902Z,4.14
2023-04-02T21:53:54.189Z,4.14
2023-04-02T21:56:31.595Z,4.14
2023-04-02T21:59:01.685Z,4.15
2023-04-02T22:01:32.249Z,4.15
2023-04-02T22:04:02.342Z,4.16
2023-04-02T22:06:32.735Z,4.15
2023-04-02T22:09:04.026Z,4.14
2023-04-02T22:11:35.711Z,4.15
2023-04-02T22:14:04.001Z,4.15
2023-04-02T22:16:33.525Z,4.15
2023-04-02T22:19:02.963Z,4.17
2023-04-02T22:21:31.431Z,4.15
2023-04-02T22:24:04.509Z,4.15
2023-04-02T22:26:32.948Z,4.16
2023-04-02T22:29:04.842Z,4.16
2023-04-02T22:31:34.901Z,4.18
2023-04-02T22:34:03.861Z,4.17
2023-04-02T22:36:31.696Z,4.16
2023-04-02T22:39:00.498Z,4.15
2023-04-02T22:41:29.271Z,4.15
2023-04-02T22:43:57.285Z,4.16
2023-04-02T22:46:25.949Z,4.16
2023-04-02T22:48:54.213Z,4.16
2023-04-02T22:51:23.403Z,4.15
2023-04-02T22:53:52.482Z,4.15
2023-04-02T22:56:24.006Z,4.15
2023-04-02T22:58:51.182Z,4.16
2023-04-02T23:01:29.131Z,4.14
2023-04-02T23:03:56.620Z,4.15
2023-04-02T23:06:24.944Z,4.14
2023-04-02T23:08:52.839Z,4.10
2023-04-02T23:11:25.922Z,4.07
2023-04-02T23:13:56.596Z,4.03
2023-04-02T23:16:26.918Z,3.99
2023-04-02T23:18:55.397Z,3.96
2023-04-02T23:21:22.891Z,3.93
2023-04-02T23:23:51.283Z,3.88
2023-04-02T23:26:27.066Z,3.85
2023-04-02T23:28:54.022Z,3.81
2023-04-02T23:31:22.919Z,3.76
2023-04-02T23:33:51.810Z,3.72
2023-04-02T23:36:32.958Z,3.67
2023-04-02T23:39:09.122Z,3.62
2023-04-02T23:41:38.504Z,3.56
2023-04-02T23:44:05.864Z,3.52
2023-04-02T23:46:33.980Z,3.47
2023-04-02T23:49:01.961Z,3.43
2023-04-02T23:51:32.047Z,3.38
2023-04-02T23:53:59.426Z,3.32
2023-04-02T23:56:26.980Z,3.26
2023-04-02T23:58:54.089Z,3.22
